sensor_id;sensor_type;location;lat;lon;timestamp;pressure;altitude;pressure_sealevel;temperature;humidity
76022;BME280;64718;52.124;6.226;2023-05-29T00:00:37;102386.31;;;10.08;98.17
76022;BME280;64718;52.124;6.226;2023-05-29T00:03:03;102388.97;;;10.05;98.69
76022;BME280;64718;52.124;6.226;2023-05-29T00:05:30;102389.03;;;10.02;99.33
76022;BME280;64718;52.124;6.226;2023-05-29T00:07:58;102392.56;;;9.98;99.83
76022;BME280;64718;52.124;6.226;2023-05-29T00:10:25;102395.25;;;9.90;100.00
76022;BME280;64718;52.124;6.226;2023-05-29T00:12:51;102399.59;;;9.91;99.80
76022;BME280;64718;52.124;6.226;2023-05-29T00:15:18;102394.50;;;9.83;100.00
76022;BME280;64718;52.124;6.226;2023-05-29T00:17:44;102397.09;;;9.82;100.00
76022;BME280;64718;52.124;6.226;2023-05-29T00:20:12;102398.81;;;9.81;100.00
76022;BME280;64718;52.124;6.226;2023-05-29T00:22:38;102393.63;;;9.81;99.86
76022;BME280;64718;52.124;6.226;2023-05-29T00:25:07;102391.09;;;9.77;100.00
76022;BME280;64718;52.124;6.226;2023-05-29T00:27:34;102405.00;;;9.73;100.00
76022;BME280;64718;52.124;6.226;2023-05-29T00:30:01;102405.91;;;9.70;100.00
76022;BME280;64718;52.124;6.226;2023-05-29T00:32:28;102404.25;;;9.65;100.00
76022;BME280;64718;52.124;6.226;2023-05-29T00:34:54;102405.19;;;9.61;100.00
76022;BME280;64718;52.124;6.226;2023-05-29T00:37:21;102406.13;;;9.55;100.00
76022;BME280;64718;52.124;6.226;2023-05-29T00:39:48;102400.94;;;9.55;100.00
76022;BME280;64718;52.124;6.226;2023-05-29T00:42:16;102400.94;;;9.54;100.00
76022;BME280;64718;52.124;6.226;2023-05-29T00:44:44;102399.25;;;9.51;100.00
76022;BME280;64718;52.124;6.226;2023-05-29T00:47:11;102395.81;;;9.50;100.00
76022;BME280;64718;52.124;6.226;2023-05-29T00:49:38;102401.06;;;9.44;100.00
76022;BME280;64718;52.124;6.226;2023-05-29T00:52:06;102406.31;;;9.41;100.00
76022;BME280;64718;52.124;6.226;2023-05-29T00:54:33;102408.94;;;9.40;100.00
76022;BME280;64718;52.124;6.226;2023-05-29T00:57:01;102419.28;;;9.43;100.00
76022;BME280;64718;52.124;6.226;2023-05-29T00:59:31;102403.78;;;9.35;100.00
76022;BME280;64718;52.124;6.226;2023-05-29T01:01:59;102415.06;;;9.34;100.00
76022;BME280;64718;52.124;6.226;2023-05-29T01:04:27;102412.50;;;9.30;100.00
76022;BME280;64718;52.124;6.226;2023-05-29T01:06:54;102415.13;;;9.28;100.00
76022;BME280;64718;52.124;6.226;2023-05-29T01:09:20;102409.97;;;9.22;100.00
76022;BME280;64718;52.124;6.226;2023-05-29T01:11:54;102412.59;;;9.20;100.00
76022;BME280;64718;52.124;6.226;2023-05-29T01:14:33;102422.13;;;9.20;100.00
76022;BME280;64718;52.124;6.226;2023-05-29T01:17:07;102421.31;;;9.13;100.00
76022;BME280;64718;52.124;6.226;2023-05-29T01:19:56;102423.88;;;9.16;100.00
76022;BME280;64718;52.124;6.226;2023-05-29T01:22:33;102429.97;;;9.15;100.00
76022;BME280;64718;52.124;6.226;2023-05-29T01:25:11;102431.75;;;9.10;100.00
76022;BME280;64718;52.124;6.226;2023-05-29T01:27:41;102430.88;;;9.10;100.00
76022;BME280;64718;52.124;6.226;2023-05-29T01:30:11;102438.63;;;9.14;100.00
76022;BME280;64718;52.124;6.226;2023-05-29T01:32:38;102439.59;;;9.04;100.00
76022;BME280;64718;52.124;6.226;2023-05-29T01:35:06;102438.75;;;9.04;100.00
76022;BME280;64718;52.124;6.226;2023-05-29T01:37:33;102448.28;;;9.02;100.00
76022;BME280;64718;52.124;6.226;2023-05-29T01:40:00;102439.63;;;9.01;100.00
76022;BME280;64718;52.124;6.226;2023-05-29T01:42:28;102445.75;;;8.94;100.00
76022;BME280;64718;52.124;6.226;2023-05-29T01:44:57;102447.53;;;8.89;100.00
76022;BME280;64718;52.124;6.226;2023-05-29T01:47:24;102451.03;;;8.86;100.00
76022;BME280;64718;52.124;6.226;2023-05-29T01:49:51;102445.78;;;8.91;100.00
76022;BME280;64718;52.124;6.226;2023-05-29T01:52:18;102453.59;;;8.90;100.00
76022;BME280;64718;52.124;6.226;2023-05-29T01:54:44;102442.41;;;8.83;100.00
76022;BME280;64718;52.124;6.226;2023-05-29T01:57:11;102451.03;;;8.85;100.00
76022;BME280;64718;52.124;6.226;2023-05-29T01:59:39;102450.16;;;8.87;100.00
76022;BME280;64718;52.124;6.226;2023-05-29T02:02:08;102451.06;;;8.82;100.00
76022;BME280;64718;52.124;6.226;2023-05-29T02:04:35;102437.22;;;8.83;100.00
76022;BME280;64718;52.124;6.226;2023-05-29T02:07:01;102449.31;;;8.85;100.00
76022;BME280;64718;52.124;6.226;2023-05-29T02:09:28;102451.91;;;8.84;100.00
76022;BME280;64718;52.124;6.226;2023-05-29T02:11:55;102451.13;;;8.77;100.00
76022;BME280;64718;52.124;6.226;2023-05-29T02:14:22;102453.72;;;8.76;100.00
76022;BME280;64718;52.124;6.226;2023-05-29T02:16:49;102454.59;;;8.76;100.00
76022;BME280;64718;52.124;6.226;2023-05-29T02:19:18;102449.47;;;8.69;100.00
76022;BME280;64718;52.124;6.226;2023-05-29T02:21:46;102452.06;;;8.64;100.00
76022;BME280;64718;52.124;6.226;2023-05-29T02:24:13;102452.91;;;8.69;100.00
76022;BME280;64718;52.124;6.226;2023-05-29T02:26:40;102443.41;;;8.65;100.00
76022;BME280;64718;52.124;6.226;2023-05-29T02:29:07;102433.91;;;8.64;100.00
76022;BME280;64718;52.124;6.226;2023-05-29T02:31:34;102423.56;;;8.61;100.00
76022;BME280;64718;52.124;6.226;2023-05-29T02:34:00;102421.00;;;8.58;100.00
76022;BME280;64718;52.124;6.226;2023-05-29T02:36:28;102427.03;;;8.59;100.00
76022;BME280;64718;52.124;6.226;2023-05-29T02:38:55;102427.94;;;8.56;100.00
76022;BME280;64718;52.124;6.226;2023-05-29T02:41:21;102438.38;;;8.47;100.00
76022;BME280;64718;52.124;6.226;2023-05-29T02:43:47;102438.38;;;8.50;100.00
76022;BME280;64718;52.124;6.226;2023-05-29T02:46:14;102443.56;;;8.48;100.00
76022;BME280;64718;52.124;6.226;2023-05-29T02:48:40;102437.50;;;8.49;100.00
76022;BME280;64718;52.124;6.226;2023-05-29T02:51:07;102438.38;;;8.47;100.00
76022;BME280;64718;52.124;6.226;2023-05-29T02:53:35;102435.81;;;8.45;100.00
76022;BME280;64718;52.124;6.226;2023-05-29T02:56:01;102442.75;;;8.43;100.00
76022;BME280;64718;52.124;6.226;2023-05-29T02:58:28;102447.13;;;8.35;100.00
76022;BME280;64718;52.124;6.226;2023-05-29T03:00:54;102456.66;;;8.33;100.00
76022;BME280;64718;52.124;6.226;2023-05-29T03:03:21;102459.22;;;8.35;100.00
76022;BME280;64718;52.124;6.226;2023-05-29T03:05:47;102464.41;;;8.32;100.00
76022;BME280;64718;52.124;6.226;2023-05-29T03:08:14;102470.47;;;8.29;100.00
76022;BME280;64718;52.124;6.226;2023-05-29T03:10:42;102465.28;;;8.28;100.00
76022;BME280;64718;52.124;6.226;2023-05-29T03:13:10;102465.34;;;8.21;100.00
76022;BME280;64718;52.124;6.226;2023-05-29T03:15:36;102455.00;;;8.18;100.00
76022;BME280;64718;52.124;6.226;2023-05-29T03:18:03;102467.94;;;8.18;100.00
76022;BME280;64718;52.124;6.226;2023-05-29T03:20:29;102455.88;;;8.17;100.00
76022;BME280;64718;52.124;6.226;2023-05-29T03:22:56;102459.34;;;8.15;100.00
76022;BME280;64718;52.124;6.226;2023-05-29T03:25:22;102455.91;;;8.13;100.00
76022;BME280;64718;52.124;6.226;2023-05-29T03:27:50;102451.53;;;8.18;100.00
76022;BME280;64718;52.124;6.226;2023-05-29T03:30:17;102453.31;;;8.10;100.00
76022;BME280;64718;52.124;6.226;2023-05-29T03:32:44;102454.16;;;8.09;100.00
76022;BME280;64718;52.124;6.226;2023-05-29T03:35:11;102455.06;;;8.05;100.00
76022;BME280;64718;52.124;6.226;2023-05-29T03:37:37;102444.72;;;8.00;100.00
76022;BME280;64718;52.124;6.226;2023-05-29T03:40:05;102452.50;;;8.00;100.00
76022;BME280;64718;52.124;6.226;2023-05-29T03:42:32;102455.09;;;7.96;100.00
76022;BME280;64718;52.124;6.226;2023-05-29T03:45:00;102461.13;;;7.98;100.00
76022;BME280;64718;52.124;6.226;2023-05-29T03:47:26;102462.81;;;8.06;100.00
76022;BME280;64718;52.124;6.226;2023-05-29T03:49:53;102471.44;;;8.11;100.00
76022;BME280;64718;52.124;6.226;2023-05-29T03:52:20;102469.72;;;8.13;100.00
76022;BME280;64718;52.124;6.226;2023-05-29T03:54:46;102464.53;;;8.15;100.00
76022;BME280;64718;52.124;6.226;2023-05-29T03:57:13;102466.25;;;8.16;100.00
76022;BME280;64718;52.124;6.226;2023-05-29T03:59:39;102471.41;;;8.17;100.00
76022;BME280;64718;52.124;6.226;2023-05-29T04:02:07;102474.84;;;8.21;100.00
76022;BME280;64718;52.124;6.226;2023-05-29T04:04:34;102481.72;;;8.25;100.00
76022;BME280;64718;52.124;6.226;2023-05-29T04:07:01;102483.44;;;8.26;100.00
76022;BME280;64718;52.124;6.226;2023-05-29T04:09:27;102488.63;;;8.28;100.00
76022;BME280;64718;52.124;6.226;2023-05-29T04:11:54;102479.97;;;8.29;100.00
76022;BME280;64718;52.124;6.226;2023-05-29T04:14:21;102480.84;;;8.34;100.00
76022;BME280;64718;52.124;6.226;2023-05-29T04:16:47;102478.19;;;8.40;100.00
76022;BME280;64718;52.124;6.226;2023-05-29T04:19:15;102480.75;;;8.44;100.00
76022;BME280;64718;52.124;6.226;2023-05-29T04:21:42;102472.09;;;8.48;100.00
76022;BME280;64718;52.124;6.226;2023-05-29T04:24:09;102479.81;;;8.56;100.00
76022;BME280;64718;52.124;6.226;2023-05-29T04:26:36;102478.84;;;8.66;100.00
76022;BME280;64718;52.124;6.226;2023-05-29T04:29:06;102474.47;;;8.77;100.00
76022;BME280;64718;52.124;6.226;2023-05-29T04:31:32;102467.44;;;8.90;100.00
76022;BME280;64718;52.124;6.226;2023-05-29T04:34:01;102477.66;;;9.04;100.00
76022;BME280;64718;52.124;6.226;2023-05-29T04:36:31;102482.66;;;9.22;99.45
76022;BME280;64718;52.124;6.226;2023-05-29T04:39:00;102491.91;;;9.50;97.99
76022;BME280;64718;52.124;6.226;2023-05-29T04:41:27;102491.53;;;9.79;95.57
76022;BME280;64718;52.124;6.226;2023-05-29T04:43:56;102506.91;;;9.98;94.50
76022;BME280;64718;52.124;6.226;2023-05-29T04:46:23;102502.25;;;10.23;93.40
76022;BME280;64718;52.124;6.226;2023-05-29T04:48:50;102509.13;;;10.27;92.07
76022;BME280;64718;52.124;6.226;2023-05-29T04:51:18;102504.53;;;10.47;91.19
76022;BME280;64718;52.124;6.226;2023-05-29T04:53:46;102502.22;;;10.81;89.37
76022;BME280;64718;52.124;6.226;2023-05-29T04:56:13;102507.25;;;10.92;88.69
76022;BME280;64718;52.124;6.226;2023-05-29T04:58:40;102501.88;;;11.02;87.19
76022;BME280;64718;52.124;6.226;2023-05-29T05:01:08;102502.66;;;11.07;86.14
76022;BME280;64718;52.124;6.226;2023-05-29T05:03:34;102511.53;;;11.44;85.76
76022;BME280;64718;52.124;6.226;2023-05-29T05:06:01;102513.81;;;11.16;86.02
76022;BME280;64718;52.124;6.226;2023-05-29T05:08:28;102517.41;;;11.56;84.15
76022;BME280;64718;52.124;6.226;2023-05-29T05:10:57;102517.56;;;11.92;82.69
76022;BME280;64718;52.124;6.226;2023-05-29T05:13:24;102513.59;;;11.72;82.50
76022;BME280;64718;52.124;6.226;2023-05-29T05:15:50;102518.41;;;11.92;82.07
76022;BME280;64718;52.124;6.226;2023-05-29T05:18:17;102521.97;;;12.30;80.09
76022;BME280;64718;52.124;6.226;2023-05-29T05:20:43;102511.53;;;12.65;78.38
76022;BME280;64718;52.124;6.226;2023-05-29T05:23:10;102507.81;;;12.00;80.00
76022;BME280;64718;52.124;6.226;2023-05-29T05:25:37;102500.16;;;12.68;78.48
76022;BME280;64718;52.124;6.226;2023-05-29T05:28:05;102500.09;;;13.05;75.91
76022;BME280;64718;52.124;6.226;2023-05-29T05:30:32;102506.06;;;13.10;76.03
76022;BME280;64718;52.124;6.226;2023-05-29T05:32:58;102516.88;;;12.96;75.20
76022;BME280;64718;52.124;6.226;2023-05-29T05:35:25;102512.81;;;12.85;75.94
76022;BME280;64718;52.124;6.226;2023-05-29T05:37:51;102515.38;;;12.51;76.92
76022;BME280;64718;52.124;6.226;2023-05-29T05:40:18;102512.28;;;12.72;77.16
76022;BME280;64718;52.124;6.226;2023-05-29T05:42:45;102511.81;;;13.24;74.35
76022;BME280;64718;52.124;6.226;2023-05-29T05:45:13;102514.09;;;13.03;73.43
76022;BME280;64718;52.124;6.226;2023-05-29T05:47:39;102512.50;;;13.33;73.80
76022;BME280;64718;52.124;6.226;2023-05-29T05:50:06;102516.13;;;13.89;71.23
76022;BME280;64718;52.124;6.226;2023-05-29T05:52:33;102507.28;;;13.93;71.07
76022;BME280;64718;52.124;6.226;2023-05-29T05:55:00;102521.63;;;14.09;69.62
76022;BME280;64718;52.124;6.226;2023-05-29T05:57:26;102516.81;;;14.23;68.94
76022;BME280;64718;52.124;6.226;2023-05-29T05:59:53;102518.34;;;14.31;69.49
76022;BME280;64718;52.124;6.226;2023-05-29T06:02:21;102521.19;;;14.23;68.96
76022;BME280;64718;52.124;6.226;2023-05-29T06:04:47;102513.88;;;14.34;67.99
76022;BME280;64718;52.124;6.226;2023-05-29T06:07:14;102513.34;;;13.95;69.16
76022;BME280;64718;52.124;6.226;2023-05-29T06:09:41;102518.09;;;14.10;68.49
76022;BME280;64718;52.124;6.226;2023-05-29T06:12:08;102518.13;;;13.79;69.28
76022;BME280;64718;52.124;6.226;2023-05-29T06:14:35;102509.72;;;14.27;68.90
76022;BME280;64718;52.124;6.226;2023-05-29T06:17:01;102518.91;;;14.40;67.65
76022;BME280;64718;52.124;6.226;2023-05-29T06:19:29;102519.84;;;14.38;67.03
76022;BME280;64718;52.124;6.226;2023-05-29T06:21:56;102519.38;;;14.25;67.49
76022;BME280;64718;52.124;6.226;2023-05-29T06:24:23;102515.53;;;14.37;66.56
76022;BME280;64718;52.124;6.226;2023-05-29T06:26:49;102515.09;;;14.52;65.93
76022;BME280;64718;52.124;6.226;2023-05-29T06:29:16;102529.56;;;15.66;62.75
76022;BME280;64718;52.124;6.226;2023-05-29T06:31:42;102514.97;;;15.33;62.02
76022;BME280;64718;52.124;6.226;2023-05-29T06:34:09;102519.88;;;14.92;63.19
76022;BME280;64718;52.124;6.226;2023-05-29T06:36:37;102534.78;;;15.41;62.29
76022;BME280;64718;52.124;6.226;2023-05-29T06:39:03;102529.31;;;15.47;61.88
76022;BME280;64718;52.124;6.226;2023-05-29T06:41:30;102522.38;;;15.71;61.32
76022;BME280;64718;52.124;6.226;2023-05-29T06:43:56;102514.63;;;15.68;61.15
76022;BME280;64718;52.124;6.226;2023-05-29T06:46:23;102532.19;;;16.11;59.10
76022;BME280;64718;52.124;6.226;2023-05-29T06:48:49;102519.13;;;16.10;58.98
76022;BME280;64718;52.124;6.226;2023-05-29T06:51:17;102536.28;;;15.97;60.02
76022;BME280;64718;52.124;6.226;2023-05-29T06:53:45;102528.34;;;15.98;59.52
76022;BME280;64718;52.124;6.226;2023-05-29T06:56:11;102536.16;;;16.00;59.02
76022;BME280;64718;52.124;6.226;2023-05-29T06:58:38;102540.44;;;16.48;58.21
76022;BME280;64718;52.124;6.226;2023-05-29T07:01:04;102521.91;;;16.51;57.84
76022;BME280;64718;52.124;6.226;2023-05-29T07:03:31;102539.88;;;16.39;57.49
76022;BME280;64718;52.124;6.226;2023-05-29T07:05:58;102530.41;;;16.57;56.66
76022;BME280;64718;52.124;6.226;2023-05-29T07:08:25;102540.75;;;16.40;57.48
76022;BME280;64718;52.124;6.226;2023-05-29T07:10:53;102545.56;;;16.51;56.93
76022;BME280;64718;52.124;6.226;2023-05-29T07:13:19;102549.50;;;15.94;59.02
76022;BME280;64718;52.124;6.226;2023-05-29T07:15:47;102544.94;;;15.99;58.16
76022;BME280;64718;52.124;6.226;2023-05-29T07:18:14;102543.78;;;16.29;57.81
76022;BME280;64718;52.124;6.226;2023-05-29T07:20:40;102540.56;;;16.66;56.66
76022;BME280;64718;52.124;6.226;2023-05-29T07:23:07;102542.34;;;16.88;55.30
76022;BME280;64718;52.124;6.226;2023-05-29T07:25:33;102542.22;;;16.91;54.82
76022;BME280;64718;52.124;6.226;2023-05-29T07:28:01;102541.94;;;16.77;55.40
76022;BME280;64718;52.124;6.226;2023-05-29T07:30:28;102544.59;;;16.75;54.47
76022;BME280;64718;52.124;6.226;2023-05-29T07:32:54;102542.78;;;16.77;54.62
76022;BME280;64718;52.124;6.226;2023-05-29T07:35:21;102550.59;;;16.79;54.14
76022;BME280;64718;52.124;6.226;2023-05-29T07:37:48;102540.50;;;16.90;54.36
76022;BME280;64718;52.124;6.226;2023-05-29T07:40:15;102546.94;;;17.03;54.77
76022;BME280;64718;52.124;6.226;2023-05-29T07:42:41;102546.50;;;16.71;55.30
76022;BME280;64718;52.124;6.226;2023-05-29T07:45:09;102546.47;;;17.34;53.78
76022;BME280;64718;52.124;6.226;2023-05-29T07:47:36;102554.19;;;17.18;54.48
76022;BME280;64718;52.124;6.226;2023-05-29T07:50:03;102558.84;;;16.91;53.49
76022;BME280;64718;52.124;6.226;2023-05-29T07:52:31;102552.22;;;17.03;54.32
76022;BME280;64718;52.124;6.226;2023-05-29T07:54:57;102556.38;;;17.88;52.54
76022;BME280;64718;52.124;6.226;2023-05-29T07:57:24;102551.75;;;17.54;53.10
76022;BME280;64718;52.124;6.226;2023-05-29T07:59:51;102541.06;;;17.38;52.57
76022;BME280;64718;52.124;6.226;2023-05-29T08:02:18;102548.97;;;17.57;53.62
76022;BME280;64718;52.124;6.226;2023-05-29T08:04:46;102546.69;;;17.09;53.12
76022;BME280;64718;52.124;6.226;2023-05-29T08:07:12;102536.50;;;17.22;53.36
76022;BME280;64718;52.124;6.226;2023-05-29T08:09:39;102543.34;;;17.05;53.14
76022;BME280;64718;52.124;6.226;2023-05-29T08:12:05;102547.53;;;17.30;53.10
76022;BME280;64718;52.124;6.226;2023-05-29T08:14:32;102546.31;;;17.38;52.30
76022;BME280;64718;52.124;6.226;2023-05-29T08:16:58;102547.28;;;17.56;52.02
76022;BME280;64718;52.124;6.226;2023-05-29T08:19:26;102549.00;;;17.37;52.23
76022;BME280;64718;52.124;6.226;2023-05-29T08:21:53;102553.53;;;17.13;52.70
76022;BME280;64718;52.124;6.226;2023-05-29T08:24:19;102556.88;;;16.96;53.62
76022;BME280;64718;52.124;6.226;2023-05-29T08:26:46;102556.44;;;17.48;53.14
76022;BME280;64718;52.124;6.226;2023-05-29T08:29:12;102552.22;;;17.44;52.50
76022;BME280;64718;52.124;6.226;2023-05-29T08:31:39;102553.72;;;17.08;53.57
76022;BME280;64718;52.124;6.226;2023-05-29T08:34:05;102554.50;;;17.31;53.37
76022;BME280;64718;52.124;6.226;2023-05-29T08:36:34;102546.84;;;17.65;53.02
76022;BME280;64718;52.124;6.226;2023-05-29T08:39:00;102553.09;;;17.83;51.28
76022;BME280;64718;52.124;6.226;2023-05-29T08:41:35;102555.28;;;17.74;51.15
76022;BME280;64718;52.124;6.226;2023-05-29T08:44:04;102555.63;;;17.66;51.06
76022;BME280;64718;52.124;6.226;2023-05-29T08:46:33;102552.53;;;17.77;50.89
76022;BME280;64718;52.124;6.226;2023-05-29T08:49:01;102552.03;;;17.87;50.20
76022;BME280;64718;52.124;6.226;2023-05-29T08:51:32;102558.03;;;18.10;49.83
76022;BME280;64718;52.124;6.226;2023-05-29T08:54:02;102556.50;;;17.85;49.88
76022;BME280;64718;52.124;6.226;2023-05-29T08:56:29;102557.53;;;18.01;49.48
76022;BME280;64718;52.124;6.226;2023-05-29T08:58:56;102552.66;;;17.74;50.83
76022;BME280;64718;52.124;6.226;2023-05-29T09:01:24;102561.56;;;17.71;51.10
76022;BME280;64718;52.124;6.226;2023-05-29T09:03:51;102560.94;;;17.85;50.29
76022;BME280;64718;52.124;6.226;2023-05-29T09:06:19;102564.69;;;17.59;52.54
76022;BME280;64718;52.124;6.226;2023-05-29T09:08:46;102561.50;;;17.52;52.70
76022;BME280;64718;52.124;6.226;2023-05-29T09:11:14;102562.00;;;17.60;52.50
76022;BME280;64718;52.124;6.226;2023-05-29T09:13:41;102562.41;;;17.51;51.55
76022;BME280;64718;52.124;6.226;2023-05-29T09:16:07;102565.97;;;17.50;51.89
76022;BME280;64718;52.124;6.226;2023-05-29T09:18:34;102562.66;;;18.05;51.17
76022;BME280;64718;52.124;6.226;2023-05-29T09:21:06;102567.59;;;18.48;49.43
76022;BME280;64718;52.124;6.226;2023-05-29T09:23:34;102568.06;;;18.58;49.16
76022;BME280;64718;52.124;6.226;2023-05-29T09:26:02;102565.13;;;18.45;49.51
76022;BME280;64718;52.124;6.226;2023-05-29T09:28:31;102562.72;;;18.41;48.79
76022;BME280;64718;52.124;6.226;2023-05-29T09:30:57;102550.81;;;18.70;50.29
76022;BME280;64718;52.124;6.226;2023-05-29T09:33:24;102564.97;;;18.48;50.13
76022;BME280;64718;52.124;6.226;2023-05-29T09:35:51;102556.09;;;18.87;49.66
76022;BME280;64718;52.124;6.226;2023-05-29T09:38:19;102548.00;;;19.42;48.52
76022;BME280;64718;52.124;6.226;2023-05-29T09:40:46;102550.03;;;19.02;48.23
76022;BME280;64718;52.124;6.226;2023-05-29T09:43:14;102552.63;;;18.50;50.36
76022;BME280;64718;52.124;6.226;2023-05-29T09:45:44;102546.88;;;18.95;49.93
76022;BME280;64718;52.124;6.226;2023-05-29T09:48:12;102549.41;;;18.62;50.31
76022;BME280;64718;52.124;6.226;2023-05-29T09:50:39;102547.19;;;18.34;50.91
76022;BME280;64718;52.124;6.226;2023-05-29T09:53:16;102550.34;;;18.24;51.18
76022;BME280;64718;52.124;6.226;2023-05-29T09:55:44;102564.78;;;18.53;50.26
76022;BME280;64718;52.124;6.226;2023-05-29T09:58:13;102556.31;;;17.90;51.69
76022;BME280;64718;52.124;6.226;2023-05-29T10:00:42;102551.41;;;18.20;51.02
76022;BME280;64718;52.124;6.226;2023-05-29T10:03:09;102554.81;;;18.41;51.34
76022;BME280;64718;52.124;6.226;2023-05-29T10:05:37;102555.31;;;18.30;50.80
76022;BME280;64718;52.124;6.226;2023-05-29T10:08:05;102545.06;;;18.61;51.51
76022;BME280;64718;52.124;6.226;2023-05-29T10:10:34;102549.13;;;18.86;48.55
76022;BME280;64718;52.124;6.226;2023-05-29T10:13:01;102541.97;;;18.88;49.34
76022;BME280;64718;52.124;6.226;2023-05-29T10:15:30;102545.06;;;18.61;50.03
76022;BME280;64718;52.124;6.226;2023-05-29T10:18:03;102556.72;;;18.37;49.48
76022;BME280;64718;52.124;6.226;2023-05-29T10:20:31;102552.63;;;18.50;48.66
76022;BME280;64718;52.124;6.226;2023-05-29T10:23:00;102565.91;;;18.47;47.80
76022;BME280;64718;52.124;6.226;2023-05-29T10:25:29;102552.94;;;18.43;47.74
76022;BME280;64718;52.124;6.226;2023-05-29T10:27:58;102550.69;;;18.54;47.58
76022;BME280;64718;52.124;6.226;2023-05-29T10:30:29;102529.34;;;19.12;47.12
76022;BME280;64718;52.124;6.226;2023-05-29T10:33:20;102533.72;;;19.46;45.23
76022;BME280;64718;52.124;6.226;2023-05-29T10:35:55;102530.22;;;19.45;45.02
76022;BME280;64718;52.124;6.226;2023-05-29T10:38:23;102532.72;;;19.48;44.71
76022;BME280;64718;52.124;6.226;2023-05-29T10:40:50;102535.25;;;19.50;44.13
76022;BME280;64718;52.124;6.226;2023-05-29T10:43:33;102539.22;;;19.58;44.62
76022;BME280;64718;52.124;6.226;2023-05-29T10:46:00;102530.88;;;19.33;43.25
76022;BME280;64718;52.124;6.226;2023-05-29T10:48:39;102527.81;;;19.08;42.89
76022;BME280;64718;52.124;6.226;2023-05-29T10:51:06;102526.31;;;19.02;43.58
76022;BME280;64718;52.124;6.226;2023-05-29T10:53:33;102522.22;;;19.14;43.75
76022;BME280;64718;52.124;6.226;2023-05-29T10:56:08;102522.72;;;19.38;44.45
76022;BME280;64718;52.124;6.226;2023-05-29T10:58:36;102529.28;;;19.46;43.49
76022;BME280;64718;52.124;6.226;2023-05-29T11:01:04;102530.22;;;19.63;42.31
76022;BME280;64718;52.124;6.226;2023-05-29T11:03:31;102523.28;;;19.77;42.38
76022;BME280;64718;52.124;6.226;2023-05-29T11:06:00;102524.72;;;19.83;41.80
76022;BME280;64718;52.124;6.226;2023-05-29T11:08:34;102522.59;;;19.74;40.68
76022;BME280;64718;52.124;6.226;2023-05-29T11:11:02;102521.44;;;19.62;39.02
76022;BME280;64718;52.124;6.226;2023-05-29T11:13:33;102516.06;;;19.64;39.71
76022;BME280;64718;52.124;6.226;2023-05-29T11:16:13;102519.06;;;19.57;38.10
76022;BME280;64718;52.124;6.226;2023-05-29T11:18:41;102510.75;;;19.97;40.14
76022;BME280;64718;52.124;6.226;2023-05-29T11:21:22;102520.47;;;19.80;39.29
76022;BME280;64718;52.124;6.226;2023-05-29T11:23:50;102516.66;;;19.53;37.72
76022;BME280;64718;52.124;6.226;2023-05-29T11:26:17;102517.16;;;19.77;37.74
76022;BME280;64718;52.124;6.226;2023-05-29T11:28:45;102516.38;;;20.06;38.35
76022;BME280;64718;52.124;6.226;2023-05-29T11:31:13;102508.63;;;19.87;38.61
76022;BME280;64718;52.124;6.226;2023-05-29T11:33:40;102513.16;;;19.85;38.60
76022;BME280;64718;52.124;6.226;2023-05-29T11:36:14;102517.94;;;19.95;39.55
76022;BME280;64718;52.124;6.226;2023-05-29T11:38:41;102517.84;;;19.96;38.07
76022;BME280;64718;52.124;6.226;2023-05-29T11:41:09;102513.31;;;19.82;38.21
76022;BME280;64718;52.124;6.226;2023-05-29T11:43:36;102507.88;;;20.01;39.27
76022;BME280;64718;52.124;6.226;2023-05-29T11:46:02;102497.88;;;20.38;38.17
76022;BME280;64718;52.124;6.226;2023-05-29T11:48:44;102512.31;;;20.48;37.82
76022;BME280;64718;52.124;6.226;2023-05-29T11:51:11;102512.50;;;20.45;37.43
76022;BME280;64718;52.124;6.226;2023-05-29T11:53:41;102510.44;;;20.34;37.63
76022;BME280;64718;52.124;6.226;2023-05-29T11:56:09;102503.25;;;20.52;38.14
76022;BME280;64718;52.124;6.226;2023-05-29T11:58:36;102522.03;;;20.32;37.13
76022;BME280;64718;52.124;6.226;2023-05-29T12:01:03;102508.88;;;20.14;36.91
76022;BME280;64718;52.124;6.226;2023-05-29T12:03:30;102502.84;;;20.44;38.18
76022;BME280;64718;52.124;6.226;2023-05-29T12:05:56;102504.97;;;20.53;38.33
76022;BME280;64718;52.124;6.226;2023-05-29T12:08:23;102499.06;;;20.64;39.60
76022;BME280;64718;52.124;6.226;2023-05-29T12:10:52;102515.53;;;20.37;36.74
76022;BME280;64718;52.124;6.226;2023-05-29T12:13:19;102507.97;;;20.31;36.53
76022;BME280;64718;52.124;6.226;2023-05-29T12:15:47;102505.38;;;20.61;37.14
76022;BME280;64718;52.124;6.226;2023-05-29T12:18:15;102502.47;;;20.66;35.74
76022;BME280;64718;52.124;6.226;2023-05-29T12:20:42;102497.06;;;20.67;34.54
76022;BME280;64718;52.124;6.226;2023-05-29T12:23:08;102487.81;;;20.90;33.25
76022;BME280;64718;52.124;6.226;2023-05-29T12:25:37;102500.28;;;20.88;33.47
76022;BME280;64718;52.124;6.226;2023-05-29T12:28:05;102488.75;;;20.89;33.08
76022;BME280;64718;52.124;6.226;2023-05-29T12:30:36;102498.84;;;20.82;32.49
76022;BME280;64718;52.124;6.226;2023-05-29T12:33:03;102490.75;;;20.70;32.53
76022;BME280;64718;52.124;6.226;2023-05-29T12:35:31;102499.72;;;20.67;33.88
76022;BME280;64718;52.124;6.226;2023-05-29T12:38:00;102505.78;;;20.69;35.27
76022;BME280;64718;52.124;6.226;2023-05-29T12:40:28;102505.41;;;20.75;36.98
76022;BME280;64718;52.124;6.226;2023-05-29T12:42:55;102493.00;;;20.92;38.64
76022;BME280;64718;52.124;6.226;2023-05-29T12:45:25;102495.66;;;21.06;36.88
76022;BME280;64718;52.124;6.226;2023-05-29T12:47:53;102501.72;;;21.22;36.75
76022;BME280;64718;52.124;6.226;2023-05-29T12:50:21;102499.31;;;21.33;36.17
76022;BME280;64718;52.124;6.226;2023-05-29T12:52:58;102495.69;;;21.20;36.06